Pirapetinga, Brazil
Current Conditions -  °F | °C
As of 3:00 PM on Sunday 23 Nov 2014 (Local Time) from SBME Reporting Station
Broken Clouds Broken Clouds  
Wind Chill: 90°   Ceiling: 10000
Heat Index: 98°   Visibility: 4mi
Dew Point: 73°   Wind: 9mph
Humidity: 59%   Direction: 190°S
Pressure: 29.85"   Gusts: NA
Location:  21.66°S, 42.35°W
Report Text: SBME 231700Z 19008KT 7000 SCT020 FEW025TCU BKN100 32/23 Q1011
Loading
Personal Weather Stations






























Interactive Weather Map New forecast layout! Learn more

10-Day Weather Forecast

Advertisements
Track Severe Weather on mobile